sensor_id;sensor_type;location;lat;lon;timestamp;temperature;humidity
15656;DHT22;7928;43.614;1.456;2024-01-30T00:01:26;11.50;99.90
15656;DHT22;7928;43.614;1.456;2024-01-30T00:03:53;11.40;99.90
15656;DHT22;7928;43.614;1.456;2024-01-30T00:06:21;11.40;99.90
15656;DHT22;7928;43.614;1.456;2024-01-30T00:08:49;11.40;99.90
15656;DHT22;7928;43.614;1.456;2024-01-30T00:11:16;11.40;99.90
15656;DHT22;7928;43.614;1.456;2024-01-30T00:13:43;11.40;99.90
15656;DHT22;7928;43.614;1.456;2024-01-30T00:16:20;11.30;99.90
15656;DHT22;7928;43.614;1.456;2024-01-30T00:18:47;11.30;99.90
15656;DHT22;7928;43.614;1.456;2024-01-30T00:21:14;11.40;99.90
15656;DHT22;7928;43.614;1.456;2024-01-30T00:23:42;11.40;99.90
15656;DHT22;7928;43.614;1.456;2024-01-30T00:26:09;11.30;99.90
15656;DHT22;7928;43.614;1.456;2024-01-30T00:28:37;11.30;99.90
15656;DHT22;7928;43.614;1.456;2024-01-30T00:31:04;11.30;99.90
15656;DHT22;7928;43.614;1.456;2024-01-30T00:33:31;11.30;99.90
15656;DHT22;7928;43.614;1.456;2024-01-30T00:35:58;11.30;99.90
15656;DHT22;7928;43.614;1.456;2024-01-30T00:38:25;11.30;99.90
15656;DHT22;7928;43.614;1.456;2024-01-30T00:40:54;11.20;99.90
15656;DHT22;7928;43.614;1.456;2024-01-30T00:43:20;11.30;99.90
15656;DHT22;7928;43.614;1.456;2024-01-30T00:45:47;11.20;99.90
15656;DHT22;7928;43.614;1.456;2024-01-30T00:48:14;11.20;99.90
15656;DHT22;7928;43.614;1.456;2024-01-30T00:50:41;11.20;99.90
15656;DHT22;7928;43.614;1.456;2024-01-30T00:53:08;11.20;99.90
15656;DHT22;7928;43.614;1.456;2024-01-30T00:55:35;11.20;99.90
15656;DHT22;7928;43.614;1.456;2024-01-30T00:58:04;11.20;99.90
15656;DHT22;7928;43.614;1.456;2024-01-30T01:00:31;11.20;99.90
15656;DHT22;7928;43.614;1.456;2024-01-30T01:02:58;11.20;99.90
15656;DHT22;7928;43.614;1.456;2024-01-30T01:05:26;11.20;99.90
15656;DHT22;7928;43.614;1.456;2024-01-30T01:07:53;11.20;99.90
15656;DHT22;7928;43.614;1.456;2024-01-30T01:10:20;11.20;99.90
15656;DHT22;7928;43.614;1.456;2024-01-30T01:12:48;11.20;99.90
15656;DHT22;7928;43.614;1.456;2024-01-30T01:15:16;11.20;99.90
15656;DHT22;7928;43.614;1.456;2024-01-30T01:17:43;11.20;99.90
15656;DHT22;7928;43.614;1.456;2024-01-30T01:20:10;11.20;99.90
15656;DHT22;7928;43.614;1.456;2024-01-30T01:22:38;11.20;99.90
15656;DHT22;7928;43.614;1.456;2024-01-30T01:25:06;11.20;99.90
15656;DHT22;7928;43.614;1.456;2024-01-30T01:27:34;11.10;99.90
15656;DHT22;7928;43.614;1.456;2024-01-30T01:30:07;11.10;99.90
15656;DHT22;7928;43.614;1.456;2024-01-30T01:32:36;11.10;99.90
15656;DHT22;7928;43.614;1.456;2024-01-30T01:35:04;11.20;99.90
15656;DHT22;7928;43.614;1.456;2024-01-30T01:37:32;11.20;99.90
15656;DHT22;7928;43.614;1.456;2024-01-30T01:39:59;11.20;99.90
15656;DHT22;7928;43.614;1.456;2024-01-30T01:42:26;11.20;99.90
15656;DHT22;7928;43.614;1.456;2024-01-30T01:44:53;11.20;99.90
15656;DHT22;7928;43.614;1.456;2024-01-30T01:47:20;11.20;99.90
15656;DHT22;7928;43.614;1.456;2024-01-30T01:49:49;11.20;99.90
15656;DHT22;7928;43.614;1.456;2024-01-30T01:52:17;11.20;99.90
15656;DHT22;7928;43.614;1.456;2024-01-30T01:54:44;11.20;99.90
15656;DHT22;7928;43.614;1.456;2024-01-30T01:57:11;11.20;99.90
15656;DHT22;7928;43.614;1.456;2024-01-30T01:59:38;11.20;99.90
15656;DHT22;7928;43.614;1.456;2024-01-30T02:02:07;11.20;99.90
15656;DHT22;7928;43.614;1.456;2024-01-30T02:04:38;11.20;99.90
15656;DHT22;7928;43.614;1.456;2024-01-30T02:07:06;11.20;99.90
15656;DHT22;7928;43.614;1.456;2024-01-30T02:09:34;11.20;99.90
15656;DHT22;7928;43.614;1.456;2024-01-30T02:12:01;11.20;99.90
15656;DHT22;7928;43.614;1.456;2024-01-30T02:14:28;11.30;99.90
15656;DHT22;7928;43.614;1.456;2024-01-30T02:16:55;11.30;99.90
15656;DHT22;7928;43.614;1.456;2024-01-30T02:19:22;11.30;99.90
15656;DHT22;7928;43.614;1.456;2024-01-30T02:21:50;11.30;99.90
15656;DHT22;7928;43.614;1.456;2024-01-30T02:24:17;11.30;99.90
15656;DHT22;7928;43.614;1.456;2024-01-30T02:26:44;11.30;99.90
15656;DHT22;7928;43.614;1.456;2024-01-30T02:29:11;11.20;99.90
15656;DHT22;7928;43.614;1.456;2024-01-30T02:31:38;11.20;99.90
15656;DHT22;7928;43.614;1.456;2024-01-30T02:34:05;11.30;99.90
15656;DHT22;7928;43.614;1.456;2024-01-30T02:36:32;11.30;99.90
15656;DHT22;7928;43.614;1.456;2024-01-30T02:39:00;11.20;99.90
15656;DHT22;7928;43.614;1.456;2024-01-30T02:41:28;11.30;99.90
15656;DHT22;7928;43.614;1.456;2024-01-30T02:43:55;11.20;99.90
15656;DHT22;7928;43.614;1.456;2024-01-30T02:46:22;11.20;99.90
15656;DHT22;7928;43.614;1.456;2024-01-30T02:48:49;11.20;99.90
15656;DHT22;7928;43.614;1.456;2024-01-30T02:51:16;11.20;99.90
15656;DHT22;7928;43.614;1.456;2024-01-30T02:53:43;11.20;99.90
15656;DHT22;7928;43.614;1.456;2024-01-30T02:56:11;11.20;99.90
15656;DHT22;7928;43.614;1.456;2024-01-30T02:58:39;11.20;99.90
15656;DHT22;7928;43.614;1.456;2024-01-30T03:01:06;11.20;99.90
15656;DHT22;7928;43.614;1.456;2024-01-30T03:03:33;11.20;99.90
15656;DHT22;7928;43.614;1.456;2024-01-30T03:06:01;11.20;99.90
15656;DHT22;7928;43.614;1.456;2024-01-30T03:08:28;11.20;99.90
15656;DHT22;7928;43.614;1.456;2024-01-30T03:10:55;11.20;99.90
15656;DHT22;7928;43.614;1.456;2024-01-30T03:13:23;11.20;99.90
15656;DHT22;7928;43.614;1.456;2024-01-30T03:15:50;11.20;99.90
15656;DHT22;7928;43.614;1.456;2024-01-30T03:18:18;11.20;99.90
15656;DHT22;7928;43.614;1.456;2024-01-30T03:20:45;11.20;99.90
15656;DHT22;7928;43.614;1.456;2024-01-30T03:23:12;11.20;99.90
15656;DHT22;7928;43.614;1.456;2024-01-30T03:25:39;11.10;99.90
15656;DHT22;7928;43.614;1.456;2024-01-30T03:28:06;11.10;99.90
15656;DHT22;7928;43.614;1.456;2024-01-30T03:30:34;11.10;99.90
15656;DHT22;7928;43.614;1.456;2024-01-30T03:33:01;11.00;99.90
15656;DHT22;7928;43.614;1.456;2024-01-30T03:35:28;11.10;99.90
15656;DHT22;7928;43.614;1.456;2024-01-30T03:37:55;11.00;99.90
15656;DHT22;7928;43.614;1.456;2024-01-30T03:40:22;11.00;99.90
15656;DHT22;7928;43.614;1.456;2024-01-30T03:42:49;11.00;99.90
15656;DHT22;7928;43.614;1.456;2024-01-30T03:45:16;11.00;99.90
15656;DHT22;7928;43.614;1.456;2024-01-30T03:47:46;11.00;99.90
15656;DHT22;7928;43.614;1.456;2024-01-30T03:50:13;11.00;99.90
15656;DHT22;7928;43.614;1.456;2024-01-30T03:52:40;11.00;99.90
15656;DHT22;7928;43.614;1.456;2024-01-30T03:55:08;10.90;99.90
15656;DHT22;7928;43.614;1.456;2024-01-30T03:57:35;10.90;99.90
15656;DHT22;7928;43.614;1.456;2024-01-30T04:00:02;10.90;99.90
15656;DHT22;7928;43.614;1.456;2024-01-30T04:02:30;10.90;99.90
15656;DHT22;7928;43.614;1.456;2024-01-30T04:04:58;10.90;99.90
15656;DHT22;7928;43.614;1.456;2024-01-30T04:07:25;10.90;99.90
15656;DHT22;7928;43.614;1.456;2024-01-30T04:09:52;10.90;99.90
15656;DHT22;7928;43.614;1.456;2024-01-30T04:12:19;10.90;99.90
15656;DHT22;7928;43.614;1.456;2024-01-30T04:14:46;10.90;99.90
15656;DHT22;7928;43.614;1.456;2024-01-30T04:17:13;10.90;99.90
15656;DHT22;7928;43.614;1.456;2024-01-30T04:19:41;10.90;99.90
15656;DHT22;7928;43.614;1.456;2024-01-30T04:22:09;11.00;99.90
15656;DHT22;7928;43.614;1.456;2024-01-30T04:24:36;10.90;99.90
15656;DHT22;7928;43.614;1.456;2024-01-30T04:27:03;10.90;99.90
15656;DHT22;7928;43.614;1.456;2024-01-30T04:29:30;10.90;99.90
15656;DHT22;7928;43.614;1.456;2024-01-30T04:31:59;10.90;99.90
15656;DHT22;7928;43.614;1.456;2024-01-30T04:34:26;10.90;99.90
15656;DHT22;7928;43.614;1.456;2024-01-30T04:36:53;10.80;99.90
15656;DHT22;7928;43.614;1.456;2024-01-30T04:39:21;10.80;99.90
15656;DHT22;7928;43.614;1.456;2024-01-30T04:41:48;10.80;99.90
15656;DHT22;7928;43.614;1.456;2024-01-30T04:44:15;10.80;99.90
15656;DHT22;7928;43.614;1.456;2024-01-30T04:46:42;10.80;99.90
15656;DHT22;7928;43.614;1.456;2024-01-30T04:49:09;10.70;99.90
15656;DHT22;7928;43.614;1.456;2024-01-30T04:51:36;10.70;99.90
15656;DHT22;7928;43.614;1.456;2024-01-30T04:54:03;10.70;99.90
15656;DHT22;7928;43.614;1.456;2024-01-30T04:56:32;10.70;99.90
15656;DHT22;7928;43.614;1.456;2024-01-30T04:58:59;10.70;99.90
15656;DHT22;7928;43.614;1.456;2024-01-30T05:01:26;10.70;99.90
15656;DHT22;7928;43.614;1.456;2024-01-30T05:03:53;10.70;99.90
15656;DHT22;7928;43.614;1.456;2024-01-30T05:06:26;10.70;99.90
15656;DHT22;7928;43.614;1.456;2024-01-30T05:08:53;10.70;99.90
15656;DHT22;7928;43.614;1.456;2024-01-30T05:11:20;10.70;99.90
15656;DHT22;7928;43.614;1.456;2024-01-30T05:13:48;10.70;99.90
15656;DHT22;7928;43.614;1.456;2024-01-30T05:16:15;10.70;99.90
15656;DHT22;7928;43.614;1.456;2024-01-30T05:18:42;10.70;99.90
15656;DHT22;7928;43.614;1.456;2024-01-30T05:21:10;10.60;99.90
15656;DHT22;7928;43.614;1.456;2024-01-30T05:23:37;10.60;99.90
15656;DHT22;7928;43.614;1.456;2024-01-30T05:26:04;10.60;99.90
15656;DHT22;7928;43.614;1.456;2024-01-30T05:28:32;10.60;99.90
15656;DHT22;7928;43.614;1.456;2024-01-30T05:31:00;10.50;99.90
15656;DHT22;7928;43.614;1.456;2024-01-30T05:33:27;10.50;99.90
15656;DHT22;7928;43.614;1.456;2024-01-30T05:35:54;10.40;99.90
15656;DHT22;7928;43.614;1.456;2024-01-30T05:38:21;10.30;99.90
15656;DHT22;7928;43.614;1.456;2024-01-30T05:40:48;10.30;99.90
15656;DHT22;7928;43.614;1.456;2024-01-30T05:43:15;10.20;99.90
15656;DHT22;7928;43.614;1.456;2024-01-30T05:45:42;10.20;99.90
15656;DHT22;7928;43.614;1.456;2024-01-30T05:48:11;10.20;99.90
15656;DHT22;7928;43.614;1.456;2024-01-30T05:50:38;10.20;99.90
15656;DHT22;7928;43.614;1.456;2024-01-30T05:53:05;10.30;99.90
15656;DHT22;7928;43.614;1.456;2024-01-30T05:55:32;10.30;99.90
15656;DHT22;7928;43.614;1.456;2024-01-30T05:57:59;10.30;99.90
15656;DHT22;7928;43.614;1.456;2024-01-30T06:00:26;10.40;99.90
15656;DHT22;7928;43.614;1.456;2024-01-30T06:02:53;10.30;99.90
15656;DHT22;7928;43.614;1.456;2024-01-30T06:05:22;10.30;99.90
15656;DHT22;7928;43.614;1.456;2024-01-30T06:07:49;10.30;99.90
15656;DHT22;7928;43.614;1.456;2024-01-30T06:10:16;10.30;99.90
15656;DHT22;7928;43.614;1.456;2024-01-30T06:12:43;10.30;99.90
15656;DHT22;7928;43.614;1.456;2024-01-30T06:15:10;10.30;99.90
15656;DHT22;7928;43.614;1.456;2024-01-30T06:17:38;10.30;99.90
15656;DHT22;7928;43.614;1.456;2024-01-30T06:20:06;10.20;99.90
15656;DHT22;7928;43.614;1.456;2024-01-30T06:22:35;10.10;99.90
15656;DHT22;7928;43.614;1.456;2024-01-30T06:25:02;10.00;99.90
15656;DHT22;7928;43.614;1.456;2024-01-30T06:27:29;9.70;99.90
15656;DHT22;7928;43.614;1.456;2024-01-30T06:29:56;9.60;99.90
15656;DHT22;7928;43.614;1.456;2024-01-30T06:32:23;9.60;99.90
15656;DHT22;7928;43.614;1.456;2024-01-30T06:34:50;9.60;99.90
15656;DHT22;7928;43.614;1.456;2024-01-30T06:37:17;9.50;99.90
15656;DHT22;7928;43.614;1.456;2024-01-30T06:39:45;9.50;99.90
15656;DHT22;7928;43.614;1.456;2024-01-30T06:42:12;9.40;99.90
15656;DHT22;7928;43.614;1.456;2024-01-30T06:44:39;9.40;99.90
15656;DHT22;7928;43.614;1.456;2024-01-30T06:47:06;9.40;99.90
15656;DHT22;7928;43.614;1.456;2024-01-30T06:49:33;9.30;99.90
15656;DHT22;7928;43.614;1.456;2024-01-30T06:52:05;9.30;99.90
15656;DHT22;7928;43.614;1.456;2024-01-30T06:54:32;9.30;99.90
15656;DHT22;7928;43.614;1.456;2024-01-30T06:57:00;9.30;99.90
15656;DHT22;7928;43.614;1.456;2024-01-30T06:59:27;9.20;99.90
15656;DHT22;7928;43.614;1.456;2024-01-30T07:01:55;9.20;99.90
15656;DHT22;7928;43.614;1.456;2024-01-30T07:04:22;9.20;99.90
15656;DHT22;7928;43.614;1.456;2024-01-30T07:06:48;9.20;99.90
15656;DHT22;7928;43.614;1.456;2024-01-30T07:09:15;9.20;99.90
15656;DHT22;7928;43.614;1.456;2024-01-30T07:11:42;9.20;99.90
15656;DHT22;7928;43.614;1.456;2024-01-30T07:14:11;9.30;99.90
15656;DHT22;7928;43.614;1.456;2024-01-30T07:16:38;9.40;99.90
15656;DHT22;7928;43.614;1.456;2024-01-30T07:19:05;9.40;99.90
15656;DHT22;7928;43.614;1.456;2024-01-30T07:21:35;9.60;99.90
15656;DHT22;7928;43.614;1.456;2024-01-30T07:24:02;9.80;99.90
15656;DHT22;7928;43.614;1.456;2024-01-30T07:26:29;10.00;99.90
15656;DHT22;7928;43.614;1.456;2024-01-30T07:28:56;10.10;99.90
15656;DHT22;7928;43.614;1.456;2024-01-30T07:31:24;10.20;99.90
15656;DHT22;7928;43.614;1.456;2024-01-30T07:33:51;10.40;99.90
15656;DHT22;7928;43.614;1.456;2024-01-30T07:36:19;10.50;99.90
15656;DHT22;7928;43.614;1.456;2024-01-30T07:38:46;10.60;99.90
15656;DHT22;7928;43.614;1.456;2024-01-30T07:41:13;10.60;99.90
15656;DHT22;7928;43.614;1.456;2024-01-30T07:43:43;10.70;99.90
15656;DHT22;7928;43.614;1.456;2024-01-30T07:46:10;10.80;99.90
15656;DHT22;7928;43.614;1.456;2024-01-30T07:48:38;10.90;99.90
15656;DHT22;7928;43.614;1.456;2024-01-30T07:51:05;10.90;99.90
15656;DHT22;7928;43.614;1.456;2024-01-30T07:53:32;11.00;99.90
15656;DHT22;7928;43.614;1.456;2024-01-30T07:55:59;11.00;99.90
15656;DHT22;7928;43.614;1.456;2024-01-30T07:58:26;11.10;99.90
15656;DHT22;7928;43.614;1.456;2024-01-30T08:00:53;11.10;99.90
15656;DHT22;7928;43.614;1.456;2024-01-30T08:03:22;11.20;99.90
15656;DHT22;7928;43.614;1.456;2024-01-30T08:05:50;11.30;99.90
15656;DHT22;7928;43.614;1.456;2024-01-30T08:08:17;11.30;99.90
15656;DHT22;7928;43.614;1.456;2024-01-30T08:10:44;11.40;99.90
15656;DHT22;7928;43.614;1.456;2024-01-30T08:13:11;11.50;99.90
15656;DHT22;7928;43.614;1.456;2024-01-30T08:15:38;11.60;99.90
15656;DHT22;7928;43.614;1.456;2024-01-30T08:18:06;11.60;99.90
15656;DHT22;7928;43.614;1.456;2024-01-30T08:20:33;11.70;99.90
15656;DHT22;7928;43.614;1.456;2024-01-30T08:23:01;11.80;99.90
15656;DHT22;7928;43.614;1.456;2024-01-30T08:25:29;11.90;99.90
15656;DHT22;7928;43.614;1.456;2024-01-30T08:27:56;12.00;99.90
15656;DHT22;7928;43.614;1.456;2024-01-30T08:30:23;12.00;99.90
15656;DHT22;7928;43.614;1.456;2024-01-30T08:32:50;12.10;99.90
15656;DHT22;7928;43.614;1.456;2024-01-30T08:35:17;12.10;99.90
15656;DHT22;7928;43.614;1.456;2024-01-30T08:37:44;12.20;99.90
15656;DHT22;7928;43.614;1.456;2024-01-30T08:40:13;12.30;99.90
15656;DHT22;7928;43.614;1.456;2024-01-30T08:42:39;12.40;99.90
15656;DHT22;7928;43.614;1.456;2024-01-30T08:45:07;12.50;99.90
15656;DHT22;7928;43.614;1.456;2024-01-30T08:47:34;12.60;99.90
15656;DHT22;7928;43.614;1.456;2024-01-30T08:50:01;12.60;99.90
15656;DHT22;7928;43.614;1.456;2024-01-30T08:52:29;12.80;99.90
15656;DHT22;7928;43.614;1.456;2024-01-30T08:54:56;12.90;99.90
15656;DHT22;7928;43.614;1.456;2024-01-30T08:57:25;13.00;99.90
15656;DHT22;7928;43.614;1.456;2024-01-30T08:59:54;13.20;99.90
15656;DHT22;7928;43.614;1.456;2024-01-30T09:02:21;13.30;99.90
15656;DHT22;7928;43.614;1.456;2024-01-30T09:04:48;13.50;99.90
15656;DHT22;7928;43.614;1.456;2024-01-30T09:07:15;13.80;99.90
15656;DHT22;7928;43.614;1.456;2024-01-30T09:09:42;13.80;99.90
15656;DHT22;7928;43.614;1.456;2024-01-30T09:12:09;14.10;99.90
15656;DHT22;7928;43.614;1.456;2024-01-30T09:14:39;14.10;99.90
15656;DHT22;7928;43.614;1.456;2024-01-30T09:17:07;14.00;99.90
15656;DHT22;7928;43.614;1.456;2024-01-30T09:19:34;13.90;99.90
15656;DHT22;7928;43.614;1.456;2024-01-30T09:22:01;13.80;99.90
15656;DHT22;7928;43.614;1.456;2024-01-30T09:24:28;13.90;99.90
15656;DHT22;7928;43.614;1.456;2024-01-30T09:26:55;14.00;99.90
15656;DHT22;7928;43.614;1.456;2024-01-30T09:29:22;14.10;99.90
15656;DHT22;7928;43.614;1.456;2024-01-30T09:31:50;14.10;99.90
15656;DHT22;7928;43.614;1.456;2024-01-30T09:34:17;14.20;99.90
15656;DHT22;7928;43.614;1.456;2024-01-30T09:36:44;14.10;99.90
15656;DHT22;7928;43.614;1.456;2024-01-30T09:39:11;14.10;99.90
15656;DHT22;7928;43.614;1.456;2024-01-30T09:41:44;14.30;99.90
15656;DHT22;7928;43.614;1.456;2024-01-30T09:44:12;14.30;99.90
15656;DHT22;7928;43.614;1.456;2024-01-30T09:46:40;14.40;99.90
15656;DHT22;7928;43.614;1.456;2024-01-30T09:49:10;14.50;99.90
15656;DHT22;7928;43.614;1.456;2024-01-30T09:51:38;14.50;99.90
15656;DHT22;7928;43.614;1.456;2024-01-30T09:54:08;14.70;99.90
15656;DHT22;7928;43.614;1.456;2024-01-30T09:56:35;14.80;99.90
15656;DHT22;7928;43.614;1.456;2024-01-30T09:59:02;15.20;99.90
15656;DHT22;7928;43.614;1.456;2024-01-30T10:01:29;15.60;99.90
15656;DHT22;7928;43.614;1.456;2024-01-30T10:03:57;15.80;99.90
15656;DHT22;7928;43.614;1.456;2024-01-30T10:06:26;16.10;99.90
15656;DHT22;7928;43.614;1.456;2024-01-30T10:08:54;16.90;99.90
15656;DHT22;7928;43.614;1.456;2024-01-30T10:11:21;17.40;99.90
15656;DHT22;7928;43.614;1.456;2024-01-30T10:13:49;18.40;99.90
15656;DHT22;7928;43.614;1.456;2024-01-30T10:16:16;19.10;99.90
15656;DHT22;7928;43.614;1.456;2024-01-30T10:18:43;19.90;99.90
15656;DHT22;7928;43.614;1.456;2024-01-30T10:21:10;20.50;99.90
15656;DHT22;7928;43.614;1.456;2024-01-30T10:23:38;21.30;99.90
15656;DHT22;7928;43.614;1.456;2024-01-30T10:26:07;21.40;99.90
15656;DHT22;7928;43.614;1.456;2024-01-30T10:28:34;22.50;99.90
15656;DHT22;7928;43.614;1.456;2024-01-30T10:31:02;23.70;99.90
15656;DHT22;7928;43.614;1.456;2024-01-30T10:33:29;24.10;99.90
15656;DHT22;7928;43.614;1.456;2024-01-30T10:36:00;24.90;99.90
15656;DHT22;7928;43.614;1.456;2024-01-30T10:38:29;23.20;99.90
15656;DHT22;7928;43.614;1.456;2024-01-30T10:40:59;23.90;99.90
15656;DHT22;7928;43.614;1.456;2024-01-30T10:43:31;24.80;99.90
15656;DHT22;7928;43.614;1.456;2024-01-30T10:46:05;25.10;99.90
15656;DHT22;7928;43.614;1.456;2024-01-30T10:48:36;24.80;99.90
15656;DHT22;7928;43.614;1.456;2024-01-30T10:51:09;23.30;99.90
15656;DHT22;7928;43.614;1.456;2024-01-30T10:53:36;22.60;99.90
15656;DHT22;7928;43.614;1.456;2024-01-30T10:56:05;21.10;99.90
15656;DHT22;7928;43.614;1.456;2024-01-30T10:58:33;22.20;99.90
15656;DHT22;7928;43.614;1.456;2024-01-30T11:01:00;23.50;99.90
15656;DHT22;7928;43.614;1.456;2024-01-30T11:03:28;25.60;99.90
15656;DHT22;7928;43.614;1.456;2024-01-30T11:05:59;26.90;99.90
15656;DHT22;7928;43.614;1.456;2024-01-30T11:08:27;27.00;99.90
15656;DHT22;7928;43.614;1.456;2024-01-30T11:10:56;27.80;99.90
15656;DHT22;7928;43.614;1.456;2024-01-30T11:13:28;26.20;99.90
15656;DHT22;7928;43.614;1.456;2024-01-30T11:15:59;25.30;99.90
15656;DHT22;7928;43.614;1.456;2024-01-30T11:18:29;25.20;99.90
15656;DHT22;7928;43.614;1.456;2024-01-30T11:20:57;26.40;99.90
15656;DHT22;7928;43.614;1.456;2024-01-30T11:23:23;27.80;99.90
15656;DHT22;7928;43.614;1.456;2024-01-30T11:25:52;29.10;99.90
15656;DHT22;7928;43.614;1.456;2024-01-30T11:28:21;28.50;99.30
15656;DHT22;7928;43.614;1.456;2024-01-30T11:30:50;30.00;98.60
15656;DHT22;7928;43.614;1.456;2024-01-30T11:33:28;29.80;96.60
15656;DHT22;7928;43.614;1.456;2024-01-30T11:35:58;30.70;95.80
15656;DHT22;7928;43.614;1.456;2024-01-30T11:38:26;30.20;94.30
15656;DHT22;7928;43.614;1.456;2024-01-30T11:40:55;30.00;94.20
15656;DHT22;7928;43.614;1.456;2024-01-30T11:43:22;29.00;94.30
15656;DHT22;7928;43.614;1.456;2024-01-30T11:45:51;29.70;94.20
15656;DHT22;7928;43.614;1.456;2024-01-30T11:48:18;28.30;93.90
15656;DHT22;7928;43.614;1.456;2024-01-30T11:50:46;29.00;94.10
15656;DHT22;7928;43.614;1.456;2024-01-30T11:53:13;29.50;93.40
15656;DHT22;7928;43.614;1.456;2024-01-30T11:55:40;29.70;92.80
15656;DHT22;7928;43.614;1.456;2024-01-30T11:58:07;28.00;93.50
15656;DHT22;7928;43.614;1.456;2024-01-30T12:00:34;28.80;93.70
15656;DHT22;7928;43.614;1.456;2024-01-30T12:03:03;29.30;93.10
15656;DHT22;7928;43.614;1.456;2024-01-30T12:05:32;29.70;92.80
15656;DHT22;7928;43.614;1.456;2024-01-30T12:07:59;30.80;91.50
15656;DHT22;7928;43.614;1.456;2024-01-30T12:10:26;30.60;91.10
15656;DHT22;7928;43.614;1.456;2024-01-30T12:12:54;30.00;91.00
15656;DHT22;7928;43.614;1.456;2024-01-30T12:15:22;29.50;91.40
15656;DHT22;7928;43.614;1.456;2024-01-30T12:17:49;29.20;91.20
15656;DHT22;7928;43.614;1.456;2024-01-30T12:20:19;27.80;91.80
15656;DHT22;7928;43.614;1.456;2024-01-30T12:22:49;28.10;91.60
15656;DHT22;7928;43.614;1.456;2024-01-30T12:25:18;29.00;91.10
15656;DHT22;7928;43.614;1.456;2024-01-30T12:27:46;30.10;91.20
15656;DHT22;7928;43.614;1.456;2024-01-30T12:30:15;31.10;90.00
15656;DHT22;7928;43.614;1.456;2024-01-30T12:32:44;31.50;88.50
15656;DHT22;7928;43.614;1.456;2024-01-30T12:35:12;31.00;88.80
15656;DHT22;7928;43.614;1.456;2024-01-30T12:37:41;31.00;87.40
15656;DHT22;7928;43.614;1.456;2024-01-30T12:40:10;31.40;87.60
15656;DHT22;7928;43.614;1.456;2024-01-30T12:42:39;32.00;86.60
15656;DHT22;7928;43.614;1.456;2024-01-30T12:45:08;32.40;85.10
15656;DHT22;7928;43.614;1.456;2024-01-30T12:47:35;32.20;83.70
15656;DHT22;7928;43.614;1.456;2024-01-30T12:50:02;30.70;85.00
15656;DHT22;7928;43.614;1.456;2024-01-30T12:52:30;30.50;85.20
15656;DHT22;7928;43.614;1.456;2024-01-30T12:54:58;30.20;84.30
15656;DHT22;7928;43.614;1.456;2024-01-30T12:57:25;29.30;85.80
15656;DHT22;7928;43.614;1.456;2024-01-30T12:59:52;28.70;86.00
15656;DHT22;7928;43.614;1.456;2024-01-30T13:02:20;28.50;87.90
15656;DHT22;7928;43.614;1.456;2024-01-30T13:04:48;28.90;87.00
15656;DHT22;7928;43.614;1.456;2024-01-30T13:07:15;28.40;86.90
15656;DHT22;7928;43.614;1.456;2024-01-30T13:09:42;29.10;88.10
15656;DHT22;7928;43.614;1.456;2024-01-30T13:12:11;29.00;87.00
15656;DHT22;7928;43.614;1.456;2024-01-30T13:14:38;30.00;85.50
15656;DHT22;7928;43.614;1.456;2024-01-30T13:17:05;30.70;84.20
15656;DHT22;7928;43.614;1.456;2024-01-30T13:19:32;30.00;84.40
15656;DHT22;7928;43.614;1.456;2024-01-30T13:21:59;30.00;84.60
15656;DHT22;7928;43.614;1.456;2024-01-30T13:24:26;30.00;83.80
15656;DHT22;7928;43.614;1.456;2024-01-30T13:26:53;29.80;84.90
15656;DHT22;7928;43.614;1.456;2024-01-30T13:29:21;29.20;84.70
15656;DHT22;7928;43.614;1.456;2024-01-30T13:31:48;29.70;84.50
15656;DHT22;7928;43.614;1.456;2024-01-30T13:34:15;30.30;84.00
15656;DHT22;7928;43.614;1.456;2024-01-30T13:36:43;30.60;83.10
15656;DHT22;7928;43.614;1.456;2024-01-30T13:39:10;30.40;82.70
15656;DHT22;7928;43.614;1.456;2024-01-30T13:41:38;30.70;81.80
15656;DHT22;7928;43.614;1.456;2024-01-30T13:44:05;31.40;81.40
15656;DHT22;7928;43.614;1.456;2024-01-30T13:46:34;29.60;82.80
15656;DHT22;7928;43.614;1.456;2024-01-30T13:49:01;28.30;85.30
15656;DHT22;7928;43.614;1.456;2024-01-30T13:51:28;28.00;84.90
15656;DHT22;7928;43.614;1.456;2024-01-30T13:53:55;29.20;85.20
15656;DHT22;7928;43.614;1.456;2024-01-30T13:56:22;29.00;83.90
15656;DHT22;7928;43.614;1.456;2024-01-30T13:58:49;29.80;84.00
15656;DHT22;7928;43.614;1.456;2024-01-30T14:01:16;30.30;83.30
15656;DHT22;7928;43.614;1.456;2024-01-30T14:03:45;31.30;82.80
15656;DHT22;7928;43.614;1.456;2024-01-30T14:06:12;31.30;81.60
15656;DHT22;7928;43.614;1.456;2024-01-30T14:08:39;31.50;81.00
15656;DHT22;7928;43.614;1.456;2024-01-30T14:11:06;32.50;79.70
15656;DHT22;7928;43.614;1.456;2024-01-30T14:13:33;30.80;80.40
15656;DHT22;7928;43.614;1.456;2024-01-30T14:16:01;30.90;80.30
15656;DHT22;7928;43.614;1.456;2024-01-30T14:18:28;32.40;79.20
15656;DHT22;7928;43.614;1.456;2024-01-30T14:20:56;32.10;77.50
15656;DHT22;7928;43.614;1.456;2024-01-30T14:23:24;32.70;76.70
15656;DHT22;7928;43.614;1.456;2024-01-30T14:25:51;32.20;76.80
15656;DHT22;7928;43.614;1.456;2024-01-30T14:28:18;32.50;77.60
15656;DHT22;7928;43.614;1.456;2024-01-30T14:30:45;31.90;77.30
15656;DHT22;7928;43.614;1.456;2024-01-30T14:33:12;31.00;77.00
15656;DHT22;7928;43.614;1.456;2024-01-30T14:35:39;31.10;77.20
15656;DHT22;7928;43.614;1.456;2024-01-30T14:38:08;31.10;76.10
15656;DHT22;7928;43.614;1.456;2024-01-30T14:40:35;30.80;76.80
15656;DHT22;7928;43.614;1.456;2024-01-30T14:43:02;31.10;77.10
15656;DHT22;7928;43.614;1.456;2024-01-30T14:45:29;31.70;75.90
15656;DHT22;7928;43.614;1.456;2024-01-30T14:47:57;31.80;76.10
15656;DHT22;7928;43.614;1.456;2024-01-30T14:50:25;31.30;75.00
15656;DHT22;7928;43.614;1.456;2024-01-30T14:52:52;30.00;76.40
15656;DHT22;7928;43.614;1.456;2024-01-30T14:55:20;30.50;76.50
15656;DHT22;7928;43.614;1.456;2024-01-30T14:57:47;30.70;76.50
15656;DHT22;7928;43.614;1.456;2024-01-30T15:00:15;31.30;74.70
15656;DHT22;7928;43.614;1.456;2024-01-30T15:02:42;31.10;75.30
15656;DHT22;7928;43.614;1.456;2024-01-30T15:05:09;31.60;75.10
15656;DHT22;7928;43.614;1.456;2024-01-30T15:07:37;31.90;74.40
15656;DHT22;7928;43.614;1.456;2024-01-30T15:10:04;31.80;74.20
15656;DHT22;7928;43.614;1.456;2024-01-30T15:12:33;31.00;75.00
15656;DHT22;7928;43.614;1.456;2024-01-30T15:15:00;31.20;75.00
15656;DHT22;7928;43.614;1.456;2024-01-30T15:17:27;29.80;75.50
15656;DHT22;7928;43.614;1.456;2024-01-30T15:19:54;30.10;76.30
15656;DHT22;7928;43.614;1.456;2024-01-30T15:22:21;30.40;75.90
15656;DHT22;7928;43.614;1.456;2024-01-30T15:24:49;30.70;75.60
15656;DHT22;7928;43.614;1.456;2024-01-30T15:27:16;31.20;74.70
15656;DHT22;7928;43.614;1.456;2024-01-30T15:29:46;29.60;75.70
15656;DHT22;7928;43.614;1.456;2024-01-30T15:32:13;29.60;76.70
15656;DHT22;7928;43.614;1.456;2024-01-30T15:34:40;28.70;76.80
15656;DHT22;7928;43.614;1.456;2024-01-30T15:37:07;26.70;80.80
15656;DHT22;7928;43.614;1.456;2024-01-30T15:39:34;25.80;82.90
15656;DHT22;7928;43.614;1.456;2024-01-30T15:42:01;25.70;83.30
15656;DHT22;7928;43.614;1.456;2024-01-30T15:44:28;26.70;82.20
15656;DHT22;7928;43.614;1.456;2024-01-30T15:46:58;27.00;81.40
15656;DHT22;7928;43.614;1.456;2024-01-30T15:49:25;27.20;80.00